Time;durP1;ratioP1;P1;durP2;ratioP2;P2;SDS_P1;SDS_P2;PMS_P1;PMS_P2;Temp;Humidity;BMP_temperature;BMP_pressure;BME280_temperature;BME280_humidity;BME280_pressure;Samples;Min_cycle;Max_cycle;Signal;HPM_P1;HPM_P2
2021/09/27 00:00:47;;;;;;;4.13;3.83;;;20.00;70.30;;;;;;5075585;28;20200;-64
2021/09/27 00:03:14;;;;;;;4.28;3.90;;;20.00;70.30;;;;;;5074893;28;20174;-65
2021/09/27 00:05:39;;;;;;;5.10;3.97;;;20.00;70.30;;;;;;5075671;28;20174;-64
2021/09/27 00:08:05;;;;;;;4.30;3.90;;;20.00;70.30;;;;;;5074484;28;20166;-64
2021/09/27 00:10:34;;;;;;;4.18;3.88;;;20.00;70.30;;;;;;5074832;28;20171;-63
2021/09/27 00:13:00;;;;;;;4.18;3.88;;;20.00;70.30;;;;;;5075028;28;20181;-63
2021/09/27 00:15:32;;;;;;;4.60;4.20;;;20.00;70.30;;;;;;5075196;28;20171;-63
2021/09/27 00:17:58;;;;;;;4.57;4.18;;;20.00;70.30;;;;;;5074492;28;20200;-64
2021/09/27 00:20:23;;;;;;;3.97;3.60;;;20.00;70.30;;;;;;5075362;28;20174;-64
2021/09/27 00:22:50;;;;;;;4.30;4.00;;;20.00;70.30;;;;;;5074806;28;20230;-64
2021/09/27 00:25:17;;;;;;;4.57;4.18;;;20.00;70.20;;;;;;5074387;28;20226;-64
2021/09/27 00:27:43;;;;;;;4.93;4.53;;;20.00;70.30;;;;;;5075341;28;20192;-64
2021/09/27 00:30:09;;;;;;;4.28;3.97;;;20.00;70.20;;;;;;5075036;28;20300;-63
2021/09/27 00:32:35;;;;;;;4.30;3.13;;;20.00;70.20;;;;;;5074417;28;20173;-64
2021/09/27 00:35:00;;;;;;;4.18;3.78;;;20.00;70.20;;;;;;5074869;28;20261;-63
2021/09/27 00:37:26;;;;;;;4.40;4.00;;;19.90;70.20;;;;;;5074991;28;20568;-63
2021/09/27 00:39:51;;;;;;;4.25;3.58;;;19.90;70.20;;;;;;5073930;28;20691;-64
2021/09/27 00:42:17;;;;;;;4.28;3.97;;;20.00;70.20;;;;;;5074704;28;20167;-64
2021/09/27 00:44:42;;;;;;;4.18;3.88;;;20.00;70.20;;;;;;5074127;28;20566;-64
2021/09/27 00:47:08;;;;;;;4.10;3.80;;;19.90;70.20;;;;;;5074432;28;20542;-64
2021/09/27 00:49:33;;;;;;;4.25;3.85;;;19.90;70.10;;;;;;5074814;28;20178;-64
2021/09/27 00:51:59;;;;;;;4.57;3.60;;;19.90;70.20;;;;;;5072458;28;20174;-64
2021/09/27 00:54:27;;;;;;;4.40;4.07;;;19.90;70.10;;;;;;5056740;28;20209;-63
2021/09/27 00:57:06;;;;;;;4.10;3.70;;;19.90;70.10;;;;;;5056503;28;20517;-63
2021/09/27 00:59:32;;;;;;;4.10;3.65;;;19.90;70.10;;;;;;5072830;28;20209;-64
2021/09/27 01:01:58;;;;;;;4.78;3.58;;;19.90;70.10;;;;;;5056306;28;20198;-64
2021/09/27 01:04:23;;;;;;;4.25;3.95;;;19.90;70.10;;;;;;5074438;28;20210;-63
2021/09/27 01:06:56;;;;;;;4.32;4.03;;;19.90;70.10;;;;;;5073384;28;20177;-63
2021/09/27 01:10:00;;;;;;;3.90;3.60;;;19.90;70.10;;;;;;5073030;28;20579;-63
2021/09/27 01:13:03;;;;;;;4.70;4.30;;;19.90;70.10;;;;;;5063019;28;20268;-63
2021/09/27 01:15:52;;;;;;;3.90;3.60;;;19.90;70.10;;;;;;5074161;28;20177;-63
2021/09/27 01:18:39;;;;;;;4.28;3.88;;;19.90;70.00;;;;;;5057340;28;20182;-63
2021/09/27 01:21:10;;;;;;;4.57;4.18;;;19.90;70.00;;;;;;5073056;28;20250;-64
2021/09/27 01:24:03;;;;;;;4.97;4.50;;;19.90;70.00;;;;;;5073697;28;20226;-64
2021/09/27 01:26:50;;;;;;;4.40;3.92;;;19.90;70.00;;;;;;5056872;28;20194;-64
2021/09/27 01:29:56;;;;;;;4.40;4.00;;;19.90;70.00;;;;;;5073062;28;20167;-64
2021/09/27 01:32:24;;;;;;;4.10;3.80;;;19.90;70.10;;;;;;5058623;28;20269;-63
2021/09/27 01:35:05;;;;;;;4.40;4.00;;;19.90;70.00;;;;;;5072889;28;20174;-63
2021/09/27 01:37:58;;;;;;;4.30;3.90;;;19.90;70.10;;;;;;5073813;28;20205;-63
2021/09/27 01:40:28;;;;;;;4.43;4.10;;;19.90;70.10;;;;;;5073606;28;20179;-64
2021/09/27 01:43:14;;;;;;;4.32;4.03;;;19.90;70.00;;;;;;5071362;28;20219;-64
2021/09/27 01:46:04;;;;;;;4.43;4.13;;;19.80;69.90;;;;;;5072520;28;20272;-64
2021/09/27 01:48:35;;;;;;;4.18;3.70;;;19.80;69.90;;;;;;5058086;28;20174;-64
2021/09/27 01:51:11;;;;;;;4.32;4.03;;;19.80;69.90;;;;;;5072186;28;20171;-63
2021/09/27 01:53:58;;;;;;;4.20;3.83;;;19.80;69.80;;;;;;5056061;28;20174;-63
2021/09/27 01:56:47;;;;;;;4.50;4.10;;;19.90;69.90;;;;;;5071678;28;20170;-63
2021/09/27 01:59:47;;;;;;;4.28;3.92;;;19.90;69.90;;;;;;5072238;28;20231;-63
2021/09/27 02:02:24;;;;;;;4.82;4.30;;;19.80;69.80;;;;;;5072734;28;20175;-64
2021/09/27 02:05:01;;;;;;;4.43;4.10;;;19.80;69.80;;;;;;5055597;28;20241;-63
2021/09/27 02:07:28;;;;;;;4.10;3.80;;;19.80;69.80;;;;;;5073191;28;20179;-64
2021/09/27 02:10:02;;;;;;;3.95;3.65;;;19.80;69.80;;;;;;5054371;28;20170;-63
2021/09/27 02:13:03;;;;;;;3.72;3.42;;;19.80;69.70;;;;;;5073350;28;20178;-63
2021/09/27 02:15:34;;;;;;;4.05;3.75;;;19.80;69.80;;;;;;5068129;28;20179;-63
2021/09/27 02:18:06;;;;;;;4.20;3.90;;;19.80;69.70;;;;;;5054620;28;20179;-63
2021/09/27 02:20:39;;;;;;;4.38;4.00;;;19.80;69.80;;;;;;5055954;28;20178;-64
2021/09/27 02:23:10;;;;;;;3.97;3.58;;;19.80;70.60;;;;;;5054278;28;20230;-64
2021/09/27 02:25:36;;;;;;;4.32;3.95;;;19.80;69.70;;;;;;5071720;28;20645;-64
2021/09/27 02:28:05;;;;;;;4.80;4.40;;;19.80;69.80;;;;;;5071760;28;20637;-64
2021/09/27 02:31:07;;;;;;;4.22;3.92;;;19.80;69.70;;;;;;5070636;28;20175;-63
2021/09/27 02:33:44;;;;;;;4.97;4.47;;;19.80;69.70;;;;;;5060790;28;20651;-63
2021/09/27 02:36:21;;;;;;;4.45;4.05;;;19.80;69.60;;;;;;5055483;28;20652;-63
2021/09/27 02:39:11;;;;;;;4.32;4.00;;;19.80;69.70;;;;;;5054779;28;20181;-64
2021/09/27 02:41:57;;;;;;;5.18;3.70;;;19.80;69.70;;;;;;5056710;28;20185;-64
2021/09/27 02:44:22;;;;;;;4.05;3.75;;;19.80;69.70;;;;;;5071013;28;20244;-64
2021/09/27 02:46:54;;;;;;;3.75;3.50;;;19.80;69.70;;;;;;5072680;28;20185;-64
2021/09/27 02:49:27;;;;;;;4.07;3.75;;;19.80;69.60;;;;;;5072828;28;20202;-64
2021/09/27 02:51:55;;;;;;;4.30;3.90;;;19.70;69.60;;;;;;5054945;28;20552;-64
2021/09/27 02:54:49;;;;;;;4.20;3.90;;;19.80;69.60;;;;;;5071727;28;20304;-64
2021/09/27 02:57:42;;;;;;;4.20;3.90;;;19.80;69.60;;;;;;5071760;28;20592;-64
2021/09/27 03:00:32;;;;;;;4.20;3.90;;;19.80;69.60;;;;;;5070576;28;20240;-64
2021/09/27 03:03:08;;;;;;;4.55;3.70;;;19.80;69.60;;;;;;5071377;28;20215;-64
2021/09/27 03:06:20;;;;;;;4.00;3.70;;;19.70;69.60;;;;;;5070929;28;20694;-64
2021/09/27 03:08:46;;;;;;;4.57;4.18;;;19.80;69.60;;;;;;5050209;28;20275;-63
2021/09/27 03:11:30;;;;;;;3.78;3.47;;;19.70;69.50;;;;;;5050390;28;20273;-63
2021/09/27 03:14:35;;;;;;;4.28;3.95;;;19.70;69.50;;;;;;5040094;28;20236;-63
2021/09/27 03:17:21;;;;;;;4.20;3.90;;;19.70;69.50;;;;;;5071497;28;20564;-63
2021/09/27 03:19:57;;;;;;;4.25;3.85;;;19.70;69.50;;;;;;5070837;28;20219;-64
2021/09/27 03:22:46;;;;;;;4.40;4.00;;;19.70;69.50;;;;;;5071145;28;20233;-64
2021/09/27 03:25:38;;;;;;;4.28;3.90;;;19.70;69.50;;;;;;5071073;28;20218;-65
2021/09/27 03:28:15;;;;;;;4.05;3.75;;;19.70;69.50;;;;;;5070363;28;20216;-64
2021/09/27 03:31:03;;;;;;;3.97;3.67;;;19.70;69.40;;;;;;5054937;28;20266;-63
2021/09/27 03:33:50;;;;;;;4.20;3.90;;;19.70;69.50;;;;;;5070577;28;20231;-63
2021/09/27 03:36:25;;;;;;;3.72;3.42;;;19.70;69.50;;;;;;5072362;28;20175;-64
2021/09/27 03:39:09;;;;;;;4.57;4.13;;;19.70;69.40;;;;;;5072098;28;20633;-64
2021/09/27 03:41:40;;;;;;;4.47;4.07;;;19.70;69.40;;;;;;5070500;28;20316;-65
2021/09/27 03:44:26;;;;;;;5.05;4.65;;;19.70;69.40;;;;;;5057035;28;20259;-64
2021/09/27 03:47:07;;;;;;;4.70;4.30;;;19.70;69.40;;;;;;5074706;28;20170;-64
2021/09/27 03:49:45;;;;;;;4.40;4.10;;;19.70;69.40;;;;;;5073876;28;20269;-64
2021/09/27 03:52:15;;;;;;;4.70;4.30;;;19.70;69.50;;;;;;5075656;28;20178;-63
2021/09/27 03:54:55;;;;;;;4.10;3.80;;;19.60;69.30;;;;;;5057630;28;20178;-63
2021/09/27 03:57:25;;;;;;;4.68;4.28;;;19.70;69.40;;;;;;5074596;28;20174;-64
2021/09/27 04:00:00;;;;;;;4.75;4.25;;;19.70;69.40;;;;;;5074114;28;20193;-64
2021/09/27 04:02:38;;;;;;;4.72;4.28;;;19.60;70.10;;;;;;5073681;28;20178;-64
2021/09/27 04:05:21;;;;;;;4.10;3.80;;;19.60;69.30;;;;;;5075345;28;20210;-64
2021/09/27 04:08:11;;;;;;;4.25;3.95;;;19.70;69.40;;;;;;5075696;28;20170;-63
2021/09/27 04:10:49;;;;;;;5.03;4.63;;;19.60;69.30;;;;;;5073649;28;20175;-63
2021/09/27 04:13:25;;;;;;;4.25;3.90;;;19.60;69.30;;;;;;5074444;28;20196;-63
2021/09/27 04:15:54;;;;;;;4.88;4.50;;;19.70;69.40;;;;;;5073340;28;20176;-63
2021/09/27 04:18:44;;;;;;;5.18;4.32;;;19.60;69.30;;;;;;5075273;28;20620;-64
2021/09/27 04:21:19;;;;;;;5.32;4.43;;;19.60;69.30;;;;;;5073704;28;20582;-64
2021/09/27 04:24:15;;;;;;;4.68;4.28;;;19.60;69.30;;;;;;5073282;28;20225;-64
2021/09/27 04:27:05;;;;;;;4.50;4.20;;;19.60;69.30;;;;;;5074448;28;20197;-64
2021/09/27 04:29:40;;;;;;;5.05;4.65;;;19.60;69.30;;;;;;5075128;28;20513;-63
2021/09/27 04:32:36;;;;;;;4.72;4.32;;;19.60;69.30;;;;;;5074648;28;20169;-63
2021/09/27 04:35:23;;;;;;;5.03;4.38;;;19.60;69.30;;;;;;5060150;28;20174;-63
2021/09/27 04:37:49;;;;;;;4.20;3.80;;;19.60;69.30;;;;;;5072797;28;20170;-64
2021/09/27 04:40:15;;;;;;;4.85;4.45;;;19.60;69.30;;;;;;5073802;28;20166;-64
2021/09/27 04:43:11;;;;;;;4.53;4.05;;;19.60;69.30;;;;;;5073889;28;20171;-64
2021/09/27 04:46:01;;;;;;;3.90;3.60;;;19.60;69.30;;;;;;5074243;28;20261;-64
2021/09/27 04:48:58;;;;;;;5.22;4.72;;;19.60;69.30;;;;;;5074901;28;20177;-64
2021/09/27 04:51:32;;;;;;;4.03;3.72;;;19.60;69.30;;;;;;5074090;28;20182;-64
2021/09/27 04:54:22;;;;;;;3.92;3.65;;;19.60;69.30;;;;;;5074051;28;20173;-64
2021/09/27 04:56:50;;;;;;;4.85;4.30;;;19.60;69.30;;;;;;5074217;28;20532;-63
2021/09/27 04:59:19;;;;;;;4.00;3.60;;;19.60;69.30;;;;;;5073883;28;20189;-64
2021/09/27 05:02:23;;;;;;;4.10;3.75;;;19.60;69.30;;;;;;5074527;28;20257;-64
2021/09/27 05:05:14;;;;;;;4.75;4.35;;;19.60;69.30;;;;;;5059016;28;20210;-64
2021/09/27 05:07:52;;;;;;;4.90;4.38;;;19.60;69.30;;;;;;5073064;28;20649;-64
2021/09/27 05:10:32;;;;;;;5.78;4.07;;;19.60;69.30;;;;;;5074363;28;20588;-63
2021/09/27 05:13:05;;;;;;;4.25;3.95;;;19.60;69.30;;;;;;5073262;28;20272;-64
2021/09/27 05:15:41;;;;;;;4.60;4.25;;;19.60;69.30;;;;;;5072804;28;20174;-63
2021/09/27 05:18:37;;;;;;;4.78;4.28;;;19.60;69.40;;;;;;5056533;28;20186;-63
2021/09/27 05:21:09;;;;;;;4.30;3.90;;;19.60;69.30;;;;;;5071963;28;20189;-64
2021/09/27 05:24:04;;;;;;;4.90;4.50;;;19.60;69.30;;;;;;5072519;28;20233;-65
2021/09/27 05:27:03;;;;;;;4.57;4.15;;;19.60;69.30;;;;;;5072037;28;20182;-64
2021/09/27 05:29:33;;;;;;;4.63;4.22;;;19.60;69.40;;;;;;5072804;28;20170;-63
2021/09/27 05:32:04;;;;;;;4.18;3.88;;;19.60;69.40;;;;;;5073345;28;20171;-63
2021/09/27 05:34:36;;;;;;;4.55;4.25;;;19.60;69.40;;;;;;5072077;28;20296;-63
2021/09/27 05:37:16;;;;;;;4.28;3.97;;;19.60;69.40;;;;;;5072268;28;20618;-63
2021/09/27 05:40:01;;;;;;;5.00;4.50;;;19.60;69.40;;;;;;5073568;28;20543;-63
2021/09/27 05:42:32;;;;;;;4.60;4.20;;;19.60;69.40;;;;;;5073221;28;20207;-64
2021/09/27 05:45:26;;;;;;;4.30;4.00;;;19.60;69.40;;;;;;5073317;28;20293;-64
2021/09/27 05:48:26;;;;;;;4.30;4.00;;;19.60;69.40;;;;;;5071420;28;20174;-64
2021/09/27 05:51:22;;;;;;;4.25;3.90;;;19.60;69.50;;;;;;5072133;28;20186;-63
2021/09/27 05:54:13;;;;;;;4.30;4.00;;;19.60;69.40;;;;;;5057671;28;20548;-63
2021/09/27 05:57:00;;;;;;;4.53;4.10;;;19.60;69.50;;;;;;5073427;28;20202;-63
2021/09/27 05:59:33;;;;;;;4.80;4.40;;;19.60;69.50;;;;;;5072400;28;20185;-64
2021/09/27 06:02:25;;;;;;;4.40;4.00;;;19.60;69.50;;;;;;5054728;28;20179;-64
2021/09/27 06:05:03;;;;;;;4.68;4.28;;;19.60;69.50;;;;;;5072756;28;20233;-64
2021/09/27 06:07:33;;;;;;;4.72;4.40;;;19.60;69.50;;;;;;5071806;28;20182;-63
2021/09/27 06:10:07;;;;;;;4.85;4.35;;;19.60;69.40;;;;;;5055173;28;20632;-63
2021/09/27 06:12:49;;;;;;;4.50;4.10;;;19.60;69.50;;;;;;5073201;28;20194;-66
2021/09/27 06:15:15;;;;;;;4.47;4.07;;;19.60;69.40;;;;;;5071261;28;20174;-68
2021/09/27 06:17:51;;;;;;;4.60;4.20;;;19.70;69.40;;;;;;5071872;28;20174;-66
2021/09/27 06:20:38;;;;;;;4.50;4.10;;;19.70;69.40;;;;;;5056062;28;20198;-67
2021/09/27 06:23:19;;;;;;;5.03;4.53;;;19.70;69.50;;;;;;5071887;28;20229;-67
2021/09/27 06:25:52;;;;;;;6.75;4.68;;;19.70;69.50;;;;;;5071908;28;20204;-67
2021/09/27 06:28:32;;;;;;;5.30;4.53;;;19.70;69.50;;;;;;5055155;28;20602;-67
2021/09/27 06:31:02;;;;;;;5.35;4.57;;;19.70;69.50;;;;;;5072117;28;20170;-66
2021/09/27 06:33:52;;;;;;;4.70;4.30;;;19.70;70.40;;;;;;5055757;28;20171;-66
2021/09/27 06:36:28;;;;;;;5.88;4.50;;;19.70;69.60;;;;;;5071108;28;20181;-67
2021/09/27 06:38:54;;;;;;;5.00;3.75;;;19.60;69.60;;;;;;5055243;28;20185;-67
2021/09/27 06:41:21;;;;;;;6.75;4.50;;;19.70;69.70;;;;;;5071829;28;20182;-67
2021/09/27 06:43:46;;;;;;;5.07;4.40;;;19.70;69.70;;;;;;5070971;28;20206;-66
2021/09/27 06:46:13;;;;;;;5.45;4.20;;;19.60;69.60;;;;;;5072594;28;20181;-67
2021/09/27 06:48:38;;;;;;;4.97;4.53;;;19.60;69.60;;;;;;5072799;28;20582;-67
2021/09/27 06:51:04;;;;;;;6.10;4.68;;;19.60;69.70;;;;;;5071772;28;20669;-66
2021/09/27 06:53:30;;;;;;;5.15;4.70;;;19.60;69.70;;;;;;5072932;28;20194;-67
2021/09/27 06:55:57;;;;;;;9.07;5.57;;;19.60;69.70;;;;;;5072646;28;20170;-66
2021/09/27 06:58:23;;;;;;;5.65;4.68;;;19.70;69.70;;;;;;5070721;28;20258;-67
2021/09/27 07:00:55;;;;;;;6.30;5.20;;;19.70;69.70;;;;;;5072518;28;20198;-67
2021/09/27 07:03:21;;;;;;;6.22;4.88;;;19.70;69.70;;;;;;5071652;28;20167;-68
2021/09/27 07:05:47;;;;;;;5.78;5.13;;;19.70;69.70;;;;;;5071742;28;20185;-67
2021/09/27 07:08:12;;;;;;;4.97;4.57;;;19.70;69.70;;;;;;5072687;28;20254;-66
2021/09/27 07:10:38;;;;;;;5.55;5.05;;;19.70;69.70;;;;;;5072644;28;20570;-66
2021/09/27 07:13:03;;;;;;;4.93;4.50;;;19.70;69.70;;;;;;5071526;28;20167;-66
2021/09/27 07:15:29;;;;;;;4.82;4.32;;;19.70;69.60;;;;;;5072519;28;20181;-66
2021/09/27 07:17:54;;;;;;;5.40;4.90;;;19.70;69.60;;;;;;5074799;28;20174;-67
2021/09/27 07:20:22;;;;;;;5.00;4.50;;;19.70;69.60;;;;;;5075638;28;20660;-67
2021/09/27 07:22:47;;;;;;;5.03;4.50;;;19.80;69.60;;;;;;5076487;28;20222;-67
2021/09/27 07:25:13;;;;;;;4.53;4.13;;;19.90;69.50;;;;;;5076279;28;20233;-67
2021/09/27 07:27:39;;;;;;;5.30;4.35;;;19.90;69.40;;;;;;5075672;28;20215;-66
2021/09/27 07:30:05;;;;;;;4.95;3.70;;;19.90;69.30;;;;;;5075998;28;20233;-66
2021/09/27 07:32:30;;;;;;;4.93;4.25;;;19.90;69.30;;;;;;5074754;28;20178;-66
2021/09/27 07:34:56;;;;;;;5.50;4.78;;;19.90;69.30;;;;;;5075378;28;20186;-66
2021/09/27 07:37:21;;;;;;;5.72;4.90;;;19.90;69.30;;;;;;5075951;28;20178;-67
2021/09/27 07:39:47;;;;;;;4.40;4.00;;;19.90;69.30;;;;;;5075289;28;20581;-69
2021/09/27 07:42:13;;;;;;;4.40;4.05;;;19.90;69.30;;;;;;5076040;28;20629;-67
2021/09/27 07:44:38;;;;;;;6.75;4.32;;;19.90;69.40;;;;;;5075897;28;20252;-67
2021/09/27 07:47:04;;;;;;;5.28;4.80;;;19.90;69.40;;;;;;5074893;28;20182;-67
2021/09/27 07:49:30;;;;;;;4.80;4.10;;;20.00;69.50;;;;;;5075775;28;20178;-67
2021/09/27 07:51:57;;;;;;;4.93;4.43;;;19.90;69.50;;;;;;5075701;28;20167;-66
2021/09/27 07:54:25;;;;;;;5.70;4.95;;;19.90;69.50;;;;;;5075110;28;20178;-67
2021/09/27 07:56:51;;;;;;;5.22;4.82;;;19.90;69.50;;;;;;5075433;28;20561;-66
2021/09/27 07:59:16;;;;;;;4.53;4.13;;;19.90;69.50;;;;;;5075669;28;20211;-67
2021/09/27 08:01:42;;;;;;;4.57;4.18;;;19.90;69.60;;;;;;5074881;28;20711;-67
2021/09/27 08:04:09;;;;;;;4.97;4.55;;;19.90;69.60;;;;;;5075099;28;20202;-67
2021/09/27 08:06:35;;;;;;;4.70;4.30;;;19.90;69.70;;;;;;5075674;28;20228;-67
2021/09/27 08:09:01;;;;;;;5.75;5.20;;;19.90;69.70;;;;;;5074746;28;20209;-66
2021/09/27 08:11:27;;;;;;;5.38;4.70;;;19.90;69.70;;;;;;5075702;28;20194;-66
2021/09/27 08:13:52;;;;;;;5.75;4.50;;;19.90;69.80;;;;;;5075170;28;20573;-66
2021/09/27 08:16:18;;;;;;;5.85;4.25;;;19.90;69.80;;;;;;5074553;28;20174;-66
2021/09/27 08:18:43;;;;;;;4.85;4.40;;;19.90;69.80;;;;;;5075500;28;20274;-67
2021/09/27 08:21:11;;;;;;;5.25;4.85;;;19.90;69.80;;;;;;5075544;28;20182;-67
2021/09/27 08:23:37;;;;;;;5.10;4.70;;;19.90;70.00;;;;;;5074445;28;20305;-67
2021/09/27 08:26:03;;;;;;;4.95;4.53;;;19.90;70.00;;;;;;5075014;28;20759;-67
2021/09/27 08:28:29;;;;;;;4.43;4.03;;;19.90;70.00;;;;;;5074454;28;20648;-67
2021/09/27 08:30:59;;;;;;;4.72;4.32;;;19.90;69.80;;;;;;5074079;28;20175;-66
2021/09/27 08:33:25;;;;;;;4.82;4.38;;;20.00;69.90;;;;;;5075181;28;20178;-66
2021/09/27 08:35:52;;;;;;;4.70;4.40;;;20.00;69.80;;;;;;5074367;28;20181;-66
2021/09/27 08:38:18;;;;;;;5.10;4.65;;;20.00;69.80;;;;;;5073876;28;20188;-67
2021/09/27 08:41:07;;;;;;;4.97;4.50;;;20.00;69.60;;;;;;5074876;28;20537;-67
2021/09/27 08:44:02;;;;;;;5.63;4.50;;;20.00;69.50;;;;;;5072634;28;20691;-67
2021/09/27 08:46:33;;;;;;;6.00;4.28;;;20.10;69.60;;;;;;5072149;28;20651;-67
2021/09/27 08:49:20;;;;;;;4.50;4.10;;;20.10;69.60;;;;;;5074539;28;20181;-67
2021/09/27 08:51:46;;;;;;;4.60;4.20;;;20.10;69.50;;;;;;5073868;28;20269;-66
2021/09/27 08:54:14;;;;;;;5.88;4.63;;;20.10;69.40;;;;;;5073418;28;20262;-66
2021/09/27 08:56:52;;;;;;;4.50;4.10;;;20.10;69.50;;;;;;5074747;28;20171;-67
2021/09/27 08:59:44;;;;;;;5.78;4.70;;;20.10;69.60;;;;;;5073905;28;20257;-67
2021/09/27 09:02:29;;;;;;;4.90;4.40;;;20.10;69.50;;;;;;5058900;28;20177;-68
2021/09/27 09:05:21;;;;;;;6.93;4.35;;;20.10;69.50;;;;;;5072477;28;20201;-67
2021/09/27 09:07:51;;;;;;;4.18;3.78;;;20.10;69.50;;;;;;5073242;28;20193;-67
2021/09/27 09:10:34;;;;;;;4.82;4.43;;;20.20;69.50;;;;;;5074302;28;20170;-67
2021/09/27 09:13:02;;;;;;;4.78;4.30;;;20.10;69.50;;;;;;5057480;28;20585;-67
2021/09/27 09:15:28;;;;;;;4.75;4.28;;;20.10;69.60;;;;;;5056681;28;20171;-66
2021/09/27 09:18:03;;;;;;;5.13;4.63;;;20.10;69.60;;;;;;5072653;28;20593;-66
2021/09/27 09:20:56;;;;;;;4.85;4.45;;;20.20;69.70;;;;;;5074033;28;20632;-66
2021/09/27 09:23:32;;;;;;;5.07;4.57;;;20.10;69.70;;;;;;5073780;28;20230;-67
2021/09/27 09:26:07;;;;;;;5.22;4.72;;;20.10;69.70;;;;;;5073081;28;20247;-66
2021/09/27 09:28:33;;;;;;;4.93;4.43;;;20.10;69.80;;;;;;5073840;28;20178;-65
2021/09/27 09:31:16;;;;;;;4.53;4.20;;;20.10;70.00;;;;;;5073661;28;20550;-66
2021/09/27 09:33:53;;;;;;;4.88;4.38;;;20.00;70.00;;;;;;5071835;28;20225;-66
2021/09/27 09:36:27;;;;;;;4.70;4.30;;;20.00;70.00;;;;;;5072783;28;20178;-67
2021/09/27 09:38:53;;;;;;;4.70;4.30;;;20.00;70.00;;;;;;5072469;28;20260;-67
2021/09/27 09:41:18;;;;;;;5.10;4.47;;;20.10;70.00;;;;;;5072096;28;20232;-67
2021/09/27 09:43:47;;;;;;;5.00;4.50;;;20.10;70.10;;;;;;5073479;28;20214;-67
2021/09/27 09:46:22;;;;;;;4.95;4.55;;;20.00;70.10;;;;;;5072904;28;20321;-67
2021/09/27 09:49:20;;;;;;;5.15;4.68;;;20.00;70.00;;;;;;5073466;28;20202;-67
2021/09/27 09:51:49;;;;;;;5.03;4.53;;;20.10;70.00;;;;;;5060837;28;20191;-67
2021/09/27 09:54:20;;;;;;;4.80;4.40;;;20.10;70.00;;;;;;5072183;28;20175;-66
2021/09/27 09:57:02;;;;;;;4.60;4.30;;;20.10;70.00;;;;;;5073173;28;20182;-67
2021/09/27 09:59:40;;;;;;;5.32;4.63;;;20.10;69.90;;;;;;5071986;28;20174;-67
2021/09/27 10:02:14;;;;;;;5.32;4.82;;;20.20;69.90;;;;;;5071980;28;20178;-67
2021/09/27 10:04:46;;;;;;;4.82;4.43;;;20.10;69.80;;;;;;5055625;28;20217;-67
2021/09/27 10:07:24;;;;;;;4.95;4.45;;;20.10;69.70;;;;;;5071239;28;20177;-67
2021/09/27 10:09:59;;;;;;;5.13;4.72;;;20.20;69.80;;;;;;5072472;28;20641;-66
2021/09/27 10:12:39;;;;;;;4.57;4.18;;;20.20;69.80;;;;;;5071463;28;20193;-66
2021/09/27 10:15:05;;;;;;;4.35;3.95;;;20.20;69.90;;;;;;5071741;28;20265;-66
2021/09/27 10:17:34;;;;;;;4.93;4.53;;;20.20;69.90;;;;;;5072705;28;20261;-66
2021/09/27 10:20:17;;;;;;;4.60;4.20;;;20.20;69.70;;;;;;5072945;28;20179;-67
2021/09/27 10:22:53;;;;;;;4.78;4.28;;;20.30;69.30;;;;;;5072286;28;20234;-67
2021/09/27 10:25:36;;;;;;;6.00;4.43;;;20.30;69.30;;;;;;5073008;28;20209;-67
2021/09/27 10:28:03;;;;;;;4.43;4.05;;;20.30;69.30;;;;;;5072965;28;20180;-66
2021/09/27 10:30:42;;;;;;;5.10;4.70;;;20.30;69.30;;;;;;5072390;28;20186;-66
2021/09/27 10:33:18;;;;;;;5.13;4.65;;;20.30;69.40;;;;;;5072945;28;20182;-66
2021/09/27 10:35:56;;;;;;;4.80;4.40;;;20.30;69.50;;;;;;5072418;28;20185;-66
2021/09/27 10:38:42;;;;;;;4.47;4.07;;;20.20;69.70;;;;;;5072081;28;20171;-66
2021/09/27 10:41:15;;;;;;;4.78;4.38;;;20.20;69.80;;;;;;5072805;28;20190;-67
2021/09/27 10:43:40;;;;;;;4.60;4.20;;;20.20;69.80;;;;;;5072146;28;20173;-68
2021/09/27 10:46:06;;;;;;;5.32;4.93;;;20.20;70.00;;;;;;5071539;28;20182;-67
2021/09/27 10:48:32;;;;;;;4.90;4.40;;;20.20;69.90;;;;;;5071760;28;20170;-68
2021/09/27 10:50:59;;;;;;;4.60;4.20;;;20.20;70.20;;;;;;5070561;28;20244;-67
2021/09/27 10:53:32;;;;;;;5.72;4.05;;;20.20;70.00;;;;;;5058975;28;20186;-68
2021/09/27 10:56:14;;;;;;;4.97;4.43;;;20.20;70.10;;;;;;5076821;28;20174;-68
2021/09/27 10:58:44;;;;;;;4.38;3.97;;;20.20;70.10;;;;;;5075064;28;20174;-69
2021/09/27 11:01:11;;;;;;;5.57;4.65;;;20.20;70.20;;;;;;5076555;28;20174;-68
2021/09/27 11:03:52;;;;;;;5.75;4.65;;;20.20;70.40;;;;;;5058435;28;20169;-68
2021/09/27 11:06:38;;;;;;;5.03;4.53;;;20.20;70.40;;;;;;5061041;28;20185;-70
2021/09/27 11:09:29;;;;;;;6.22;4.35;;;20.30;70.20;;;;;;5060696;28;20213;-66
2021/09/27 11:12:04;;;;;;;6.10;4.55;;;20.30;70.40;;;;;;5074773;28;20261;-66
2021/09/27 11:14:35;;;;;;;5.20;4.60;;;20.30;70.20;;;;;;5076630;28;20180;-66
2021/09/27 11:17:06;;;;;;;5.13;4.57;;;20.30;70.30;;;;;;5076189;28;20182;-66
2021/09/27 11:19:32;;;;;;;5.28;4.32;;;20.30;70.30;;;;;;5075783;28;20652;-66
2021/09/27 11:22:17;;;;;;;4.75;4.28;;;20.30;70.30;;;;;;5075778;28;20230;-67
2021/09/27 11:24:43;;;;;;;5.18;4.28;;;20.30;70.30;;;;;;5075735;28;20321;-67
2021/09/27 11:27:18;;;;;;;5.95;4.47;;;20.30;70.30;;;;;;5076189;28;20608;-66
2021/09/27 11:29:53;;;;;;;6.20;4.30;;;20.30;70.30;;;;;;5076251;28;20176;-66
2021/09/27 11:32:28;;;;;;;5.70;4.88;;;20.30;70.30;;;;;;5074172;28;20182;-67
2021/09/27 11:34:57;;;;;;;5.15;4.55;;;20.30;70.40;;;;;;5075818;28;20636;-65
2021/09/27 11:37:31;;;;;;;4.88;4.35;;;20.30;71.20;;;;;;5076159;28;20232;-66
2021/09/27 11:40:05;;;;;;;5.03;4.55;;;20.30;70.30;;;;;;5074871;28;20640;-66
2021/09/27 11:42:43;;;;;;;4.97;4.05;;;20.30;70.30;;;;;;5075844;28;20177;-66
2021/09/27 11:45:25;;;;;;;4.68;4.28;;;20.30;70.60;;;;;;5075511;28;20583;-67
2021/09/27 11:47:57;;;;;;;6.28;4.53;;;20.30;70.40;;;;;;5075049;28;20326;-66
2021/09/27 11:50:29;;;;;;;10.93;5.05;;;20.30;70.40;;;;;;5075977;28;20182;-66
2021/09/27 11:53:27;;;;;;;6.57;4.30;;;20.30;70.40;;;;;;5075032;28;20295;-66
2021/09/27 11:56:21;;;;;;;5.20;4.65;;;20.30;70.40;;;;;;5075708;28;20189;-66
2021/09/27 11:58:55;;;;;;;5.80;4.20;;;20.30;70.30;;;;;;5069244;28;20179;-66
2021/09/27 12:01:27;;;;;;;4.95;4.43;;;20.30;70.30;;;;;;5075050;28;20181;-67
2021/09/27 12:03:57;;;;;;;4.68;4.28;;;20.30;70.30;;;;;;5073153;28;20206;-66
2021/09/27 12:06:32;;;;;;;5.07;4.18;;;20.30;70.30;;;;;;5074551;28;20257;-66
2021/09/27 12:09:05;;;;;;;5.10;4.47;;;20.30;70.40;;;;;;5057375;28;20178;-66
2021/09/27 12:11:36;;;;;;;4.63;4.10;;;20.30;70.30;;;;;;5075461;28;20175;-65
2021/09/27 12:14:02;;;;;;;4.68;4.28;;;20.30;70.30;;;;;;5074428;28;20308;-65
2021/09/27 12:16:34;;;;;;;4.90;4.32;;;20.30;70.30;;;;;;5075582;28;20198;-66
2021/09/27 12:19:12;;;;;;;5.32;4.82;;;20.30;70.30;;;;;;5075195;28;20182;-66
2021/09/27 12:21:39;;;;;;;4.22;3.80;;;20.40;70.30;;;;;;5074810;28;20232;-67
2021/09/27 12:24:22;;;;;;;4.50;4.10;;;20.30;70.30;;;;;;5074917;28;20221;-67
2021/09/27 12:26:54;;;;;;;5.90;4.40;;;20.30;70.30;;;;;;5075291;28;20511;-66
2021/09/27 12:29:24;;;;;;;4.70;4.30;;;20.30;70.40;;;;;;5073382;28;20179;-66
2021/09/27 12:31:56;;;;;;;4.60;3.70;;;20.30;70.30;;;;;;5073303;28;20174;-63
2021/09/27 12:34:42;;;;;;;5.28;4.10;;;20.30;70.40;;;;;;5053646;28;20317;-64
2021/09/27 12:37:08;;;;;;;4.57;3.38;;;20.30;70.40;;;;;;5052438;28;20186;-65
2021/09/27 12:39:35;;;;;;;4.13;3.78;;;20.40;70.40;;;;;;5053668;28;20175;-65
2021/09/27 12:42:01;;;;;;;4.47;4.07;;;20.40;70.30;;;;;;5052996;28;20258;-66
2021/09/27 12:44:30;;;;;;;4.13;3.83;;;20.40;70.20;;;;;;5051973;28;20195;-65
2021/09/27 12:46:56;;;;;;;4.15;3.70;;;20.40;70.20;;;;;;5052170;28;20220;-65
2021/09/27 12:49:31;;;;;;;4.90;4.40;;;20.40;70.20;;;;;;5051153;28;20644;-63
2021/09/27 12:51:56;;;;;;;5.65;3.90;;;20.50;70.20;;;;;;5045692;28;20216;-62
2021/09/27 12:54:24;;;;;;;5.15;4.50;;;20.50;70.10;;;;;;5051922;28;20175;-63
2021/09/27 12:56:50;;;;;;;3.95;3.60;;;20.50;70.30;;;;;;5052919;28;20179;-65
2021/09/27 12:59:17;;;;;;;5.18;3.90;;;20.50;70.10;;;;;;5054414;28;20172;-65
2021/09/27 13:01:51;;;;;;;5.30;3.67;;;20.50;69.90;;;;;;5051721;28;20175;-66
2021/09/27 13:04:21;;;;;;;4.88;3.75;;;20.50;70.00;;;;;;5051930;28;20264;-66
2021/09/27 13:07:16;;;;;;;5.55;3.70;;;20.50;70.20;;;;;;5054032;28;20182;-65
2021/09/27 13:10:05;;;;;;;4.65;3.97;;;20.50;70.30;;;;;;5054267;28;20567;-65
2021/09/27 13:12:33;;;;;;;4.35;3.95;;;20.50;70.40;;;;;;5053554;28;20650;-64
2021/09/27 13:15:09;;;;;;;5.50;3.58;;;20.50;70.50;;;;;;5053833;28;20274;-63
2021/09/27 13:17:38;;;;;;;4.75;3.58;;;20.50;70.40;;;;;;5053511;28;20175;-64
2021/09/27 13:20:26;;;;;;;4.15;3.78;;;20.50;70.30;;;;;;5053916;28;20179;-64
2021/09/27 13:22:51;;;;;;;4.70;3.80;;;20.50;70.40;;;;;;5053655;28;20317;-64
2021/09/27 13:25:32;;;;;;;6.85;3.97;;;20.50;70.50;;;;;;5053878;28;20207;-65
2021/09/27 13:28:15;;;;;;;5.00;3.83;;;20.40;70.50;;;;;;5053832;28;20179;-64
2021/09/27 13:30:41;;;;;;;5.25;3.85;;;20.40;70.70;;;;;;5054082;28;20179;-64